createdAt,value
2022-12-08T00:01:27.463Z,30.83
2022-12-08T00:03:55.566Z,33.38
2022-12-08T00:06:54.312Z,28.88
2022-12-08T00:09:32.023Z,32.15
2022-12-08T00:12:08.643Z,29.17
2022-12-08T00:14:44.453Z,30.08
2022-12-08T00:17:13.537Z,30.45
2022-12-08T00:19:41.819Z,29.63
2022-12-08T00:22:10.744Z,28.85
2022-12-08T00:24:40.578Z,29.23
2022-12-08T00:27:09.283Z,26.88
2022-12-08T00:29:37.090Z,26.70
2022-12-08T00:32:05.088Z,28.23
2022-12-08T00:34:33.103Z,28.15
2022-12-08T00:37:00.518Z,29.10
2022-12-08T00:39:27.635Z,29.35
2022-12-08T00:42:12.879Z,29.63
2022-12-08T00:44:44.240Z,27.35
2022-12-08T00:47:11.955Z,25.98
2022-12-08T00:49:39.033Z,25.17
2022-12-08T00:52:06.506Z,26.15
2022-12-08T00:54:33.776Z,24.73
2022-12-08T00:57:00.823Z,24.75
2022-12-08T00:59:27.802Z,24.85
2022-12-08T01:01:54.834Z,26.13
2022-12-08T01:04:22.012Z,28.02
2022-12-08T01:06:49.833Z,25.95
2022-12-08T01:09:18.150Z,25.38
2022-12-08T01:11:45.655Z,24.05
2022-12-08T01:14:13.678Z,25.60
2022-12-08T01:16:44.070Z,24.55
2022-12-08T01:19:15.938Z,26.83
2022-12-08T01:21:43.942Z,27.05
2022-12-08T01:24:12.904Z,27.17
2022-12-08T01:26:40.476Z,25.98
2022-12-08T01:29:07.957Z,24.45
2022-12-08T01:31:35.178Z,25.88
2022-12-08T01:34:02.478Z,26.88
2022-12-08T01:36:31.804Z,26.77
2022-12-08T01:39:00.893Z,26.42
2022-12-08T01:41:33.422Z,25.13
2022-12-08T01:44:04.254Z,30.25
2022-12-08T01:46:33.589Z,29.90
2022-12-08T01:49:09.269Z,31.45
2022-12-08T01:51:42.788Z,30.83
2022-12-08T01:54:11.943Z,32.53
2022-12-08T01:57:01.162Z,32.67
2022-12-08T01:59:30.826Z,31.67
2022-12-08T02:01:58.454Z,32.15
2022-12-08T02:04:25.651Z,33.25
2022-12-08T02:06:53.828Z,32.10
2022-12-08T02:09:22.076Z,32.83
2022-12-08T02:11:50.620Z,33.63
2022-12-08T02:14:17.773Z,34.83
2022-12-08T02:17:14.793Z,35.20
2022-12-08T02:20:19.475Z,33.15
2022-12-08T02:22:57.297Z,36.60
2022-12-08T02:25:33.420Z,34.97
2022-12-08T02:28:38.102Z,36.50
2022-12-08T02:31:56.149Z,32.05
2022-12-08T02:34:47.662Z,33.90
2022-12-08T02:37:26.847Z,33.35
2022-12-08T02:40:22.343Z,32.92
2022-12-08T02:42:57.893Z,32.03
2022-12-08T02:45:39.221Z,32.85
2022-12-08T02:48:09.419Z,33.78
2022-12-08T02:50:36.513Z,32.78
2022-12-08T02:55:50.202Z,33.20
2022-12-08T02:58:29.134Z,34.50
2022-12-08T03:01:17.884Z,33.08
2022-12-08T03:03:47.923Z,33.25
2022-12-08T03:06:33.565Z,32.25
2022-12-08T03:09:21.843Z,32.60
2022-12-08T03:12:20.304Z,32.75
2022-12-08T03:14:53.923Z,32.13
2022-12-08T03:19:50.319Z,34.67
2022-12-08T03:22:22.351Z,34.10
2022-12-08T03:24:50.160Z,34.05
2022-12-08T03:27:21.831Z,32.20
2022-12-08T03:29:51.051Z,32.05
2022-12-08T03:32:29.436Z,32.50
2022-12-08T03:34:59.325Z,32.53
2022-12-08T03:37:28.295Z,33.15
2022-12-08T03:39:55.739Z,32.92
2022-12-08T03:42:22.898Z,33.95
2022-12-08T03:44:49.916Z,38.05
2022-12-08T03:47:16.980Z,36.58
2022-12-08T03:49:43.934Z,38.25
2022-12-08T03:52:10.901Z,39.53
2022-12-08T03:54:37.961Z,39.42
2022-12-08T03:57:05.003Z,42.00
2022-12-08T03:59:32.041Z,41.70
2022-12-08T04:01:59.032Z,41.95
2022-12-08T04:04:26.110Z,39.55
2022-12-08T04:06:53.058Z,38.22
2022-12-08T04:09:20.147Z,39.72
2022-12-08T04:11:47.106Z,38.42
2022-12-08T04:14:14.185Z,41.05
2022-12-08T04:16:41.359Z,39.95
2022-12-08T04:19:08.491Z,40.95
2022-12-08T04:21:37.142Z,42.13
2022-12-08T04:24:04.297Z,41.70
2022-12-08T04:26:31.368Z,41.63
2022-12-08T04:28:58.321Z,43.05
2022-12-08T04:31:25.450Z,42.78
2022-12-08T04:33:52.429Z,42.75
2022-12-08T04:36:19.451Z,43.92
2022-12-08T04:38:46.386Z,47.10
2022-12-08T04:41:13.467Z,43.03
2022-12-08T04:43:41.493Z,43.25
2022-12-08T04:46:09.463Z,44.30
2022-12-08T04:48:41.310Z,42.03
2022-12-08T04:51:15.916Z,42.42
2022-12-08T04:53:46.743Z,41.58
2022-12-08T04:56:15.949Z,41.47
2022-12-08T04:58:43.224Z,43.45
2022-12-08T05:01:10.647Z,45.45
2022-12-08T05:03:37.983Z,44.72
2022-12-08T05:06:05.508Z,44.85
2022-12-08T05:08:32.898Z,45.40
2022-12-08T05:11:05.667Z,46.13
2022-12-08T05:13:33.147Z,44.45
2022-12-08T05:16:13.137Z,42.35
2022-12-08T05:18:42.062Z,41.92
2022-12-08T05:21:09.892Z,39.58
2022-12-08T05:23:37.014Z,40.70
2022-12-08T05:26:04.047Z,42.10
2022-12-08T05:28:46.352Z,41.47
2022-12-08T05:31:15.404Z,40.28
2022-12-08T05:33:43.164Z,40.67
2022-12-08T05:36:12.926Z,38.97
2022-12-08T05:38:40.759Z,40.88
2022-12-08T05:41:09.069Z,39.85
2022-12-08T05:43:36.334Z,41.03
2022-12-08T05:46:03.688Z,40.83
2022-12-08T05:48:30.852Z,40.42
2022-12-08T05:50:58.113Z,40.47
2022-12-08T05:53:25.261Z,43.35
2022-12-08T05:55:52.255Z,57.75
2022-12-08T05:58:22.564Z,44.70
2022-12-08T06:00:50.843Z,48.80
2022-12-08T06:03:19.942Z,44.55
2022-12-08T06:05:47.983Z,42.78
2022-12-08T06:08:15.445Z,41.95
2022-12-08T06:10:44.079Z,44.75
2022-12-08T06:13:11.437Z,42.83
2022-12-08T06:15:39.265Z,42.53
2022-12-08T06:18:07.126Z,41.47
2022-12-08T06:20:34.880Z,39.90
2022-12-08T06:23:02.361Z,43.55
2022-12-08T06:25:29.401Z,44.78
2022-12-08T06:27:56.399Z,50.65
2022-12-08T06:30:23.542Z,51.63
2022-12-08T06:32:50.601Z,49.60
2022-12-08T06:35:17.661Z,50.17
2022-12-08T06:37:44.719Z,46.15
2022-12-08T06:40:12.399Z,43.45
2022-12-08T06:42:45.472Z,42.95
2022-12-08T06:45:14.915Z,42.97
2022-12-08T06:47:42.219Z,42.70
2022-12-08T06:50:11.434Z,39.80
2022-12-08T06:52:47.268Z,39.05
2022-12-08T06:55:42.532Z,39.10
2022-12-08T06:58:07.426Z,43.00
2022-12-08T07:00:34.441Z,44.88
2022-12-08T07:03:01.514Z,44.40
2022-12-08T07:05:28.535Z,45.92
2022-12-08T07:07:56.044Z,47.33
2022-12-08T07:10:23.020Z,48.28
2022-12-08T07:12:50.133Z,47.75
2022-12-08T07:15:17.167Z,46.30
2022-12-08T07:17:44.376Z,48.60
2022-12-08T07:20:11.686Z,44.85
2022-12-08T07:22:38.626Z,47.70
2022-12-08T07:25:06.284Z,43.00
2022-12-08T07:27:33.307Z,42.35
2022-12-08T07:30:00.252Z,42.00
2022-12-08T07:32:27.386Z,43.13
2022-12-08T07:34:54.350Z,40.85
2022-12-08T07:37:21.289Z,39.97
2022-12-08T07:39:48.513Z,39.17
2022-12-08T07:42:15.460Z,42.42
2022-12-08T07:44:46.759Z,43.42
2022-12-08T07:47:14.002Z,48.20
2022-12-08T07:49:41.049Z,46.63
2022-12-08T07:52:08.028Z,46.72
2022-12-08T07:54:35.030Z,49.15
2022-12-08T07:57:03.882Z,45.75
2022-12-08T07:59:30.838Z,43.35
2022-12-08T08:02:21.292Z,43.28
2022-12-08T08:04:45.145Z,41.13
2022-12-08T08:07:12.617Z,43.13
2022-12-08T08:09:39.822Z,43.25
2022-12-08T08:12:30.360Z,38.72
2022-12-08T08:14:53.884Z,34.53
2022-12-08T08:17:21.106Z,33.85
2022-12-08T08:19:48.275Z,33.97
2022-12-08T08:22:15.212Z,31.85
2022-12-08T08:24:45.083Z,31.20
2022-12-08T08:27:12.721Z,30.85
2022-12-08T08:29:39.750Z,31.33
2022-12-08T08:32:06.745Z,30.90
2022-12-08T08:34:33.790Z,31.25
2022-12-08T08:37:00.909Z,32.22
2022-12-08T08:39:28.038Z,31.35
2022-12-08T08:41:54.990Z,31.50
2022-12-08T08:44:22.080Z,32.17
2022-12-08T08:46:49.211Z,30.60
2022-12-08T08:49:16.287Z,29.80
2022-12-08T08:51:44.016Z,30.25
2022-12-08T08:54:11.607Z,28.23
2022-12-08T08:56:38.596Z,29.27
2022-12-08T08:59:05.701Z,28.23
2022-12-08T09:01:32.924Z,27.35
2022-12-08T09:04:00.096Z,24.38
2022-12-08T09:06:28.562Z,24.92
2022-12-08T09:08:56.045Z,23.27
2022-12-08T09:11:26.052Z,22.48
2022-12-08T09:13:54.904Z,22.90
2022-12-08T09:16:22.928Z,21.08
2022-12-08T09:18:50.812Z,19.98
2022-12-08T09:21:22.925Z,20.33
2022-12-08T09:23:58.096Z,20.40
2022-12-08T09:26:26.739Z,18.02
2022-12-08T09:28:55.331Z,17.70
2022-12-08T09:31:23.977Z,15.60
2022-12-08T09:33:54.352Z,16.00
2022-12-08T09:36:21.615Z,15.60
2022-12-08T09:38:49.409Z,14.43
2022-12-08T09:41:40.320Z,14.20
2022-12-08T09:44:36.677Z,13.90
2022-12-08T09:47:13.543Z,13.10
2022-12-08T09:49:47.345Z,13.80
2022-12-08T09:52:25.316Z,14.07
2022-12-08T09:54:52.669Z,13.80
2022-12-08T09:57:24.656Z,15.23
2022-12-08T10:00:06.264Z,14.30
2022-12-08T10:02:33.792Z,12.85
2022-12-08T10:05:00.968Z,13.13
2022-12-08T10:07:32.473Z,13.45
2022-12-08T10:10:16.039Z,12.43
2022-12-08T10:13:19.918Z,11.43
2022-12-08T10:16:10.489Z,11.98
2022-12-08T10:18:40.779Z,11.77
2022-12-08T10:21:20.744Z,10.77
2022-12-08T10:23:55.738Z,11.80
2022-12-08T10:26:23.064Z,11.38
2022-12-08T10:28:50.730Z,10.70
2022-12-08T10:31:20.627Z,10.00
2022-12-08T10:33:51.479Z,10.48
2022-12-08T10:36:18.580Z,10.30
2022-12-08T10:38:45.649Z,9.73
2022-12-08T10:41:12.734Z,10.07
2022-12-08T10:44:03.080Z,10.13
2022-12-08T10:46:30.471Z,9.65
2022-12-08T10:49:06.460Z,10.02
2022-12-08T10:51:33.352Z,9.70
2022-12-08T10:54:01.046Z,11.02
2022-12-08T10:56:30.596Z,10.70
2022-12-08T10:59:17.589Z,11.85
2022-12-08T11:01:53.297Z,11.65
2022-12-08T11:04:24.293Z,12.85
2022-12-08T11:06:52.819Z,13.32
2022-12-08T11:09:19.812Z,12.98
2022-12-08T11:11:53.994Z,13.50
2022-12-08T11:14:26.820Z,13.40
2022-12-08T11:17:05.825Z,11.63
2022-12-08T11:19:37.984Z,10.35
2022-12-08T11:22:35.788Z,10.23
2022-12-08T11:25:08.641Z,9.13
2022-12-08T11:27:38.023Z,10.32
2022-12-08T11:30:17.444Z,10.77
2022-12-08T11:32:49.998Z,10.95
2022-12-08T11:35:30.209Z,11.85
2022-12-08T11:38:19.777Z,10.63
2022-12-08T11:40:50.552Z,10.55
2022-12-08T11:43:35.759Z,10.18
2022-12-08T11:46:09.897Z,10.77
2022-12-08T11:49:05.582Z,10.15
2022-12-08T11:51:59.177Z,9.77
2022-12-08T11:55:03.307Z,9.55
2022-12-08T11:57:30.729Z,9.95
2022-12-08T11:59:59.019Z,11.20
2022-12-08T12:02:30.137Z,11.35
2022-12-08T12:05:08.257Z,11.65
2022-12-08T12:07:58.498Z,15.73
2022-12-08T12:10:35.909Z,14.82
2022-12-08T12:13:25.825Z,13.88
2022-12-08T12:16:23.889Z,12.80
2022-12-08T12:18:56.240Z,12.57
2022-12-08T12:21:32.652Z,12.73
2022-12-08T12:24:02.051Z,13.25
2022-12-08T12:26:31.372Z,13.13
2022-12-08T12:29:20.297Z,13.27
2022-12-08T12:32:09.092Z,13.02
2022-12-08T12:34:44.870Z,13.38
2022-12-08T12:37:15.539Z,12.48
2022-12-08T12:39:48.891Z,12.80
2022-12-08T12:42:51.228Z,13.07
2022-12-08T12:45:18.164Z,13.70
2022-12-08T12:47:57.457Z,13.00
2022-12-08T12:50:33.843Z,12.73
2022-12-08T12:53:09.151Z,14.02
2022-12-08T12:55:54.617Z,13.82
2022-12-08T12:58:27.662Z,14.30
2022-12-08T13:01:13.104Z,13.80
2022-12-08T13:03:50.123Z,14.63
2022-12-08T13:06:33.742Z,16.13
2022-12-08T13:09:00.979Z,16.90
2022-12-08T13:11:28.084Z,17.42
2022-12-08T13:14:04.516Z,18.05
2022-12-08T13:16:39.090Z,19.10
2022-12-08T13:19:14.371Z,19.00
2022-12-08T13:21:41.833Z,19.95
2022-12-08T13:24:14.885Z,20.27
2022-12-08T13:27:04.195Z,20.45
2022-12-08T13:29:40.484Z,20.60
2022-12-08T13:32:07.428Z,20.05
2022-12-08T13:34:49.101Z,20.40
2022-12-08T13:37:25.577Z,19.35
2022-12-08T13:40:19.184Z,19.33
2022-12-08T13:43:15.359Z,20.23
2022-12-08T13:46:52.944Z,19.05
2022-12-08T13:55:59.030Z,19.90
2022-12-08T13:57:34.574Z,19.88
2022-12-08T14:00:07.634Z,21.38
2022-12-08T14:02:47.743Z,20.65
2022-12-08T14:05:34.605Z,21.63
2022-12-08T14:08:57.771Z,20.58
2022-12-08T14:11:33.849Z,21.73
2022-12-08T14:14:03.652Z,20.13
2022-12-08T14:16:41.277Z,20.33
2022-12-08T14:19:23.688Z,22.42
2022-12-08T14:21:56.602Z,22.92
2022-12-08T14:24:25.129Z,23.15
2022-12-08T14:26:55.165Z,24.58
2022-12-08T14:29:52.801Z,25.75
2022-12-08T14:32:43.021Z,26.52
2022-12-08T14:35:10.122Z,27.30
2022-12-08T14:37:48.574Z,27.77
2022-12-08T14:40:23.109Z,27.80
2022-12-08T14:43:16.823Z,28.08
2022-12-08T14:45:43.764Z,29.38
2022-12-08T14:48:33.893Z,30.73
2022-12-08T14:51:03.994Z,32.05
2022-12-08T14:53:40.025Z,28.52
2022-12-08T14:56:12.368Z,31.73
2022-12-08T14:58:39.512Z,30.55
2022-12-08T15:01:08.578Z,30.98
2022-12-08T15:03:36.713Z,30.20
2022-12-08T15:06:06.914Z,29.83
2022-12-08T15:08:35.527Z,30.08
2022-12-08T16:41:43.347Z,44.85
